createdAt,value
2023-05-03T00:00:17.297Z,4.80
2023-05-03T00:02:44.807Z,4.80
2023-05-03T00:05:15.321Z,4.80
2023-05-03T00:07:43.868Z,4.70
2023-05-03T00:10:16.010Z,4.70
2023-05-03T00:12:44.063Z,4.80
2023-05-03T00:15:11.338Z,4.80
2023-05-03T00:17:38.577Z,4.80
2023-05-03T00:20:06.157Z,4.80
2023-05-03T00:22:33.457Z,4.80
2023-05-03T00:25:00.677Z,4.80
2023-05-03T00:27:27.417Z,4.70
2023-05-03T00:29:54.123Z,5.20
2023-05-03T00:32:22.974Z,4.80
2023-05-03T00:34:59.246Z,6.40
2023-05-03T00:37:26.218Z,4.80
2023-05-03T00:39:53.555Z,4.80
2023-05-03T00:42:20.450Z,4.90
2023-05-03T00:44:47.208Z,4.80
2023-05-03T00:47:14.152Z,4.80
2023-05-03T00:49:41.474Z,4.70
2023-05-03T00:52:09.227Z,4.60
2023-05-03T00:54:36.768Z,4.60
2023-05-03T00:57:05.321Z,4.60
2023-05-03T00:59:33.027Z,4.50
2023-05-03T01:02:00.159Z,4.50
2023-05-03T01:04:27.978Z,4.50
2023-05-03T01:07:03.528Z,4.40
2023-05-03T01:09:46.503Z,4.40
2023-05-03T01:12:32.025Z,4.40
2023-05-03T01:15:25.717Z,4.50
2023-05-03T01:18:04.392Z,4.50
2023-05-03T01:20:34.682Z,4.50
2023-05-03T01:23:36.685Z,4.40
2023-05-03T01:26:16.956Z,4.40
2023-05-03T01:28:44.130Z,4.40
2023-05-03T01:31:11.820Z,4.40
2023-05-03T01:33:52.168Z,4.40
2023-05-03T01:36:30.728Z,4.40
2023-05-03T01:38:57.628Z,4.40
2023-05-03T01:41:27.146Z,4.30
2023-05-03T01:43:55.635Z,4.30
2023-05-03T01:46:22.504Z,4.30
2023-05-03T01:48:49.285Z,4.30
2023-05-03T01:51:15.982Z,4.30
2023-05-03T01:53:42.687Z,4.30
2023-05-03T01:56:09.425Z,4.30
2023-05-03T01:58:36.637Z,4.20
2023-05-03T02:01:06.205Z,4.20
2023-05-03T02:03:33.122Z,4.20
2023-05-03T02:05:59.804Z,4.20
2023-05-03T02:08:26.465Z,4.30
2023-05-03T02:10:53.128Z,4.30
2023-05-03T02:13:19.878Z,4.20
2023-05-03T02:15:46.569Z,4.20
2023-05-03T02:18:13.228Z,4.20
2023-05-03T02:20:39.921Z,4.20
2023-05-03T02:23:06.972Z,4.20
2023-05-03T02:25:33.648Z,6.10
2023-05-03T02:28:01.291Z,4.10
2023-05-03T02:30:29.045Z,4.10
2023-05-03T02:32:55.782Z,4.10
2023-05-03T02:35:22.660Z,4.10
2023-05-03T02:37:49.465Z,4.00
2023-05-03T02:40:16.389Z,4.00
2023-05-03T02:42:43.181Z,4.10
2023-05-03T02:45:10.648Z,4.00
2023-05-03T02:47:37.486Z,4.00
2023-05-03T02:50:04.782Z,3.30
2023-05-03T02:52:31.734Z,3.80
2023-05-03T02:54:58.535Z,3.80
2023-05-03T02:57:25.634Z,3.80
2023-05-03T02:59:52.494Z,3.90
2023-05-03T03:02:19.478Z,4.00
2023-05-03T03:04:46.145Z,4.00
2023-05-03T03:07:12.845Z,3.90
2023-05-03T03:09:39.616Z,3.90
2023-05-03T03:12:06.586Z,3.90
2023-05-03T03:14:33.288Z,5.50
2023-05-03T03:17:01.798Z,3.80
2023-05-03T03:19:28.522Z,3.90
2023-05-03T03:21:55.298Z,4.00
2023-05-03T03:24:22.040Z,4.00
2023-05-03T03:26:48.734Z,4.10
2023-05-03T03:29:15.438Z,4.10
2023-05-03T03:31:42.214Z,4.20
2023-05-03T03:34:09.000Z,4.10
2023-05-03T03:36:37.973Z,4.10
2023-05-03T03:39:05.581Z,4.20
2023-05-03T03:41:33.338Z,4.30
2023-05-03T03:44:00.146Z,4.30
2023-05-03T03:46:26.936Z,4.30
2023-05-03T03:48:53.841Z,4.30
2023-05-03T03:51:20.638Z,4.20
2023-05-03T03:53:47.291Z,4.30
2023-05-03T03:56:14.007Z,4.30
2023-05-03T03:58:40.729Z,4.20
2023-05-03T04:01:07.651Z,4.10
2023-05-03T04:03:34.655Z,4.10
2023-05-03T04:06:01.594Z,4.10
2023-05-03T04:08:28.334Z,4.10
2023-05-03T04:10:55.032Z,4.10
2023-05-03T04:13:21.927Z,4.10
2023-05-03T04:15:49.444Z,4.20
2023-05-03T04:18:16.146Z,4.20
2023-05-03T04:20:42.986Z,4.30
2023-05-03T04:23:09.667Z,4.30
2023-05-03T04:25:37.077Z,4.30
2023-05-03T04:28:04.376Z,4.30
2023-05-03T04:30:31.929Z,4.40
2023-05-03T04:33:00.944Z,4.40
2023-05-03T04:35:28.811Z,4.40
2023-05-03T04:37:55.551Z,4.40
2023-05-03T04:40:22.281Z,4.40
2023-05-03T04:42:48.986Z,4.60
2023-05-03T04:45:15.650Z,4.40
2023-05-03T04:47:43.167Z,4.40
2023-05-03T04:50:11.320Z,4.60
2023-05-03T04:52:38.361Z,4.60
2023-05-03T04:55:05.600Z,4.60
2023-05-03T04:57:33.293Z,4.50
2023-05-03T05:00:00.963Z,4.50
2023-05-03T05:02:28.419Z,5.90
2023-05-03T05:04:55.344Z,4.50
2023-05-03T05:07:22.198Z,4.50
2023-05-03T05:09:48.911Z,4.50
2023-05-03T05:12:15.755Z,4.60
2023-05-03T05:14:42.558Z,6.10
2023-05-03T05:17:09.396Z,4.90
2023-05-03T05:19:36.754Z,5.00
2023-05-03T05:22:03.579Z,5.00
2023-05-03T05:24:30.246Z,5.10
2023-05-03T05:26:57.020Z,5.30
2023-05-03T05:29:24.706Z,5.50
2023-05-03T05:31:53.095Z,5.60
2023-05-03T05:34:19.921Z,5.50
2023-05-03T05:36:46.836Z,5.40
2023-05-03T05:39:13.638Z,6.90
2023-05-03T05:41:40.647Z,5.50
2023-05-03T05:44:07.976Z,5.60
2023-05-03T05:46:34.684Z,5.60
2023-05-03T05:49:01.484Z,5.70
2023-05-03T05:51:28.943Z,7.00
2023-05-03T05:53:55.625Z,6.00
2023-05-03T05:56:22.522Z,6.00
2023-05-03T05:58:49.221Z,6.10
2023-05-03T06:01:15.964Z,6.20
2023-05-03T06:03:42.684Z,6.40
2023-05-03T06:06:09.408Z,6.50
2023-05-03T06:08:36.429Z,6.70
2023-05-03T06:11:03.202Z,6.90
2023-05-03T06:13:30.070Z,8.50
2023-05-03T06:15:56.750Z,7.20
2023-05-03T06:18:24.415Z,7.40
2023-05-03T06:20:51.381Z,7.50
2023-05-03T06:23:18.395Z,7.70
2023-05-03T06:25:48.309Z,7.90
2023-05-03T06:28:15.037Z,8.00
2023-05-03T06:30:41.879Z,8.20
2023-05-03T06:33:12.364Z,8.30
2023-05-03T06:35:39.081Z,10.50
2023-05-03T06:38:05.741Z,9.80
2023-05-03T06:40:33.324Z,8.80
2023-05-03T06:43:00.007Z,9.90
2023-05-03T06:45:26.790Z,9.10
2023-05-03T06:47:53.483Z,9.20
2023-05-03T06:50:22.289Z,9.30
2023-05-03T06:52:49.012Z,9.30
2023-05-03T06:55:15.890Z,9.50
2023-05-03T06:57:42.966Z,9.60
2023-05-03T07:00:10.803Z,9.70
2023-05-03T07:02:37.771Z,9.80
2023-05-03T07:05:05.251Z,9.90
2023-05-03T07:07:32.667Z,10.10
2023-05-03T07:09:59.427Z,10.20
2023-05-03T07:12:28.249Z,10.30
2023-05-03T07:14:55.577Z,10.40
2023-05-03T07:17:23.119Z,11.90
2023-05-03T07:19:50.672Z,10.70
2023-05-03T07:22:17.606Z,10.80
2023-05-03T07:24:44.333Z,10.90
2023-05-03T07:27:11.463Z,11.00
2023-05-03T07:29:38.173Z,11.20
2023-05-03T07:32:05.539Z,11.30
2023-05-03T07:34:32.953Z,11.40
2023-05-03T07:36:59.793Z,11.60
2023-05-03T07:39:26.718Z,11.70
2023-05-03T07:41:53.428Z,11.80
2023-05-03T07:44:20.372Z,11.90
2023-05-03T07:46:47.205Z,12.90
2023-05-03T07:49:13.923Z,12.20
2023-05-03T07:51:41.419Z,12.30
2023-05-03T07:54:08.351Z,12.40
2023-05-03T07:56:35.037Z,12.50
2023-05-03T08:01:31.554Z,12.70
2023-05-03T08:03:58.663Z,12.90
2023-05-03T08:06:26.108Z,13.90
2023-05-03T08:08:52.900Z,13.20
2023-05-03T08:11:19.584Z,13.20
2023-05-03T08:13:46.410Z,13.30
2023-05-03T08:16:14.109Z,13.40
2023-05-03T08:18:41.030Z,13.60
2023-05-03T08:21:09.666Z,13.70
2023-05-03T08:23:36.727Z,13.70
2023-05-03T08:26:04.306Z,13.90
2023-05-03T08:28:31.265Z,14.00
2023-05-03T08:30:58.085Z,14.20
2023-05-03T08:33:24.865Z,14.30
2023-05-03T08:35:51.551Z,14.40
2023-05-03T08:38:18.215Z,15.40
2023-05-03T08:40:51.078Z,14.20
2023-05-03T08:43:21.732Z,14.30
2023-05-03T08:45:48.483Z,14.30
2023-05-03T08:48:15.704Z,14.20
2023-05-03T08:50:43.382Z,14.30
2023-05-03T08:53:11.278Z,13.80
2023-05-03T08:55:38.436Z,14.60
2023-05-03T08:58:12.742Z,15.50
2023-05-03T09:00:41.676Z,14.60
2023-05-03T09:03:08.724Z,14.60
2023-05-03T09:05:39.008Z,14.60
2023-05-03T09:08:10.809Z,14.50
2023-05-03T09:10:43.608Z,15.00
2023-05-03T09:13:11.894Z,14.20
2023-05-03T09:15:38.803Z,15.80
2023-05-03T09:18:12.383Z,14.40
2023-05-03T09:20:41.012Z,15.40
2023-05-03T09:23:09.548Z,14.80
2023-05-03T09:25:51.546Z,15.80
2023-05-03T09:28:20.214Z,14.90
2023-05-03T09:30:48.598Z,15.00
2023-05-03T09:33:21.210Z,15.00
2023-05-03T09:36:02.207Z,15.00
2023-05-03T09:38:30.955Z,15.20
2023-05-03T09:40:58.086Z,15.40
2023-05-03T09:43:25.213Z,15.60
2023-05-03T09:45:51.980Z,15.90
2023-05-03T09:48:23.462Z,16.20
2023-05-03T09:50:51.372Z,16.30
2023-05-03T09:53:21.467Z,16.40
2023-05-03T09:55:51.008Z,16.40
2023-05-03T09:58:19.035Z,17.20
2023-05-03T10:00:46.510Z,16.20
2023-05-03T10:03:22.169Z,15.70
2023-05-03T10:05:51.426Z,15.30
2023-05-03T10:08:35.519Z,15.10
2023-05-03T10:11:04.490Z,15.00
2023-05-03T10:13:31.892Z,15.10
2023-05-03T10:16:12.719Z,15.10
2023-05-03T10:18:51.027Z,16.00
2023-05-03T10:21:29.754Z,15.30
2023-05-03T10:24:16.654Z,15.50
2023-05-03T10:26:47.931Z,15.70
2023-05-03T10:29:34.048Z,15.90
2023-05-03T10:32:05.643Z,15.90
2023-05-03T10:34:33.990Z,16.00
2023-05-03T10:37:10.381Z,16.10
2023-05-03T10:39:37.713Z,16.40
2023-05-03T10:42:09.104Z,16.50
2023-05-03T10:44:52.479Z,16.50
2023-05-03T10:47:24.386Z,16.60
2023-05-03T10:50:16.226Z,16.50
2023-05-03T10:52:42.996Z,16.50
2023-05-03T10:55:10.637Z,16.40
2023-05-03T10:57:40.201Z,16.20
2023-05-03T11:00:32.769Z,16.20
2023-05-03T11:03:21.644Z,16.10
2023-05-03T11:05:48.722Z,16.10
2023-05-03T11:08:17.947Z,16.30
2023-05-03T11:10:46.366Z,18.00
2023-05-03T11:13:13.840Z,16.80
2023-05-03T11:15:41.604Z,17.10
2023-05-03T11:18:10.083Z,16.80
2023-05-03T11:20:37.061Z,16.70
2023-05-03T11:23:04.846Z,16.70
2023-05-03T11:25:33.523Z,16.90
2023-05-03T11:28:07.063Z,16.80
2023-05-03T11:30:35.507Z,17.00
2023-05-03T11:33:03.015Z,17.00
2023-05-03T11:35:30.741Z,16.90
2023-05-03T11:37:57.697Z,16.70
2023-05-03T11:40:25.038Z,16.80
2023-05-03T11:42:54.816Z,18.30
2023-05-03T11:45:23.789Z,16.70
2023-05-03T11:47:51.515Z,16.80
2023-05-03T11:50:19.064Z,18.10
2023-05-03T11:52:46.425Z,17.00
2023-05-03T11:55:13.298Z,17.20
2023-05-03T11:57:42.146Z,17.60
2023-05-03T12:00:17.164Z,17.20
2023-05-03T12:02:45.419Z,17.30
2023-05-03T12:05:14.346Z,17.20
2023-05-03T12:07:41.932Z,18.70
2023-05-03T12:10:22.670Z,17.40
2023-05-03T12:12:56.919Z,17.30
2023-05-03T12:16:10.243Z,17.40
2023-05-03T12:18:55.900Z,17.40
2023-05-03T12:23:56.518Z,17.20
2023-05-03T12:26:25.816Z,17.30
2023-05-03T12:28:56.161Z,17.50
2023-05-03T12:31:23.914Z,17.40
2023-05-03T12:34:07.274Z,17.30
2023-05-03T12:36:38.674Z,17.20
2023-05-03T12:39:10.060Z,17.20
2023-05-03T12:44:10.284Z,17.10
2023-05-03T12:46:38.205Z,16.90
2023-05-03T12:49:08.139Z,16.90
2023-05-03T12:51:35.959Z,16.80
2023-05-03T12:54:04.051Z,16.90
2023-05-03T12:56:33.109Z,16.90
2023-05-03T13:04:36.642Z,16.90
2023-05-03T13:06:47.093Z,16.80
2023-05-03T13:09:20.668Z,16.70
2023-05-03T13:11:55.321Z,16.80
2023-05-03T13:14:22.206Z,16.80
2023-05-03T13:16:49.387Z,16.70
2023-05-03T13:19:16.889Z,16.70
2023-05-03T13:21:43.576Z,16.70
2023-05-03T13:24:10.288Z,16.50
2023-05-03T13:26:36.995Z,16.40
2023-05-03T13:29:05.056Z,16.30
2023-05-03T13:31:31.802Z,16.20
2023-05-03T13:33:58.584Z,17.60
2023-05-03T13:36:26.651Z,16.30
2023-05-03T13:38:54.116Z,16.20
2023-05-03T13:41:21.713Z,16.10
2023-05-03T13:43:48.430Z,16.00
2023-05-03T13:46:15.148Z,16.00
2023-05-03T13:48:42.426Z,16.00
2023-05-03T13:51:10.775Z,16.00
2023-05-03T13:53:37.588Z,16.00
2023-05-03T13:56:05.746Z,16.00
2023-05-03T13:58:32.515Z,16.00
2023-05-03T14:00:59.476Z,16.00
2023-05-03T14:03:26.283Z,16.10
2023-05-03T14:05:53.187Z,16.00
2023-05-03T14:08:19.885Z,16.00
2023-05-03T14:10:46.625Z,16.10
2023-05-03T14:13:13.328Z,15.80
2023-05-03T14:15:45.368Z,15.80
2023-05-03T14:18:12.310Z,16.50
2023-05-03T14:20:39.163Z,15.70
2023-05-03T14:23:06.280Z,15.60
2023-05-03T14:25:32.997Z,15.60
2023-05-03T14:27:59.724Z,15.50
2023-05-03T14:30:26.462Z,15.50
2023-05-03T14:32:53.194Z,15.30
2023-05-03T14:35:20.212Z,15.50
2023-05-03T14:37:47.436Z,15.60
2023-05-03T14:40:14.467Z,15.80
2023-05-03T14:42:41.368Z,15.70
2023-05-03T14:45:10.890Z,15.60
2023-05-03T14:47:39.282Z,15.50
2023-05-03T14:50:06.974Z,15.50
2023-05-03T14:52:34.086Z,15.50
2023-05-03T14:55:01.714Z,15.40
2023-05-03T14:57:28.811Z,15.40
2023-05-03T14:59:55.673Z,15.40
2023-05-03T15:02:22.899Z,15.40
2023-05-03T15:04:49.665Z,15.80
2023-05-03T15:07:16.506Z,15.50
2023-05-03T15:09:44.761Z,15.80
2023-05-03T15:12:11.761Z,15.60
2023-05-03T15:14:38.480Z,16.50
2023-05-03T15:17:05.500Z,15.70
2023-05-03T15:19:32.422Z,15.60
2023-05-03T15:21:59.275Z,15.50
2023-05-03T15:24:25.994Z,17.00
2023-05-03T15:26:52.697Z,15.30
2023-05-03T15:29:19.788Z,15.50
2023-05-03T15:31:46.662Z,15.20
2023-05-03T15:34:13.630Z,16.70
2023-05-03T15:36:40.794Z,15.90
2023-05-03T15:39:07.889Z,15.00
2023-05-03T15:41:34.609Z,16.20
2023-05-03T15:44:05.279Z,15.00
2023-05-03T15:46:33.569Z,15.00
2023-05-03T15:49:01.009Z,14.80
2023-05-03T15:51:28.043Z,14.80
2023-05-03T15:53:54.913Z,14.80
2023-05-03T15:56:24.562Z,14.90
2023-05-03T15:58:51.590Z,14.80
2023-05-03T16:01:18.762Z,14.80
2023-05-03T16:03:46.365Z,13.70
2023-05-03T16:06:13.318Z,14.70
2023-05-03T16:08:40.079Z,14.80
2023-05-03T16:11:07.908Z,14.90
2023-05-03T16:13:35.225Z,15.00
2023-05-03T16:16:03.385Z,15.00
2023-05-03T16:18:30.452Z,15.00
2023-05-03T16:20:57.175Z,14.90
2023-05-03T16:23:24.528Z,14.90
2023-05-03T16:25:51.324Z,14.80
2023-05-03T16:28:18.003Z,15.70
2023-05-03T16:30:45.745Z,14.80
2023-05-03T16:33:13.148Z,14.80
2023-05-03T16:35:40.661Z,14.90
2023-05-03T16:38:07.666Z,14.80
2023-05-03T16:40:34.386Z,14.80
2023-05-03T16:43:01.253Z,14.90
2023-05-03T16:45:28.466Z,14.90
2023-05-03T16:47:55.889Z,14.90
2023-05-03T16:50:22.748Z,14.90
2023-05-03T16:52:49.441Z,14.90
2023-05-03T16:55:22.017Z,15.00
2023-05-03T16:57:48.684Z,15.10
2023-05-03T17:00:16.290Z,15.40
2023-05-03T17:02:43.234Z,15.40
2023-05-03T17:05:12.874Z,15.70
2023-05-03T17:07:41.815Z,15.90
2023-05-03T17:10:09.240Z,16.10
2023-05-03T17:12:36.078Z,16.30
2023-05-03T17:15:03.096Z,16.80
2023-05-03T17:17:32.415Z,17.00
2023-05-03T17:19:59.382Z,17.50
2023-05-03T17:22:26.326Z,18.30
2023-05-03T17:24:54.809Z,19.30
2023-05-03T17:27:21.811Z,19.50
2023-05-03T17:29:48.522Z,20.00
2023-05-03T17:32:15.418Z,20.40
2023-05-03T17:34:42.122Z,20.70
2023-05-03T17:37:09.076Z,20.90
2023-05-03T17:39:36.118Z,21.20
2023-05-03T17:42:03.770Z,21.50
2023-05-03T17:44:30.967Z,21.40
2023-05-03T17:46:57.970Z,21.50
2023-05-03T17:49:24.914Z,21.90
2023-05-03T17:51:51.670Z,22.20
2023-05-03T17:54:18.373Z,22.30
2023-05-03T17:56:45.207Z,22.30
2023-05-03T17:59:11.960Z,22.40
2023-05-03T18:01:38.855Z,22.50
2023-05-03T18:04:05.834Z,22.40
2023-05-03T18:06:32.782Z,22.20
2023-05-03T18:08:59.530Z,22.00
2023-05-03T18:11:26.315Z,21.80
2023-05-03T18:13:52.994Z,21.70
2023-05-03T18:16:19.817Z,21.70
2023-05-03T18:18:46.771Z,21.50
2023-05-03T18:21:13.739Z,21.30
2023-05-03T18:23:42.461Z,21.20
2023-05-03T18:26:11.001Z,21.10
2023-05-03T18:28:37.961Z,21.00
2023-05-03T18:31:05.209Z,21.30
2023-05-03T18:33:33.943Z,20.90
2023-05-03T18:36:00.809Z,20.10
2023-05-03T18:38:27.532Z,19.10
2023-05-03T18:40:56.014Z,19.50
2023-05-03T18:43:22.798Z,17.70
2023-05-03T18:45:49.542Z,17.20
2023-05-03T18:48:16.327Z,16.70
2023-05-03T18:50:44.132Z,16.20
2023-05-03T18:53:11.186Z,15.60
2023-05-03T18:55:38.279Z,15.20
2023-05-03T18:58:05.379Z,14.80
2023-05-03T19:00:32.161Z,14.50
2023-05-03T19:02:59.015Z,14.20
2023-05-03T19:05:26.040Z,13.90
2023-05-03T19:07:52.708Z,13.60
2023-05-03T19:10:20.968Z,13.30
2023-05-03T19:12:47.714Z,13.00
2023-05-03T19:15:14.435Z,12.80
2023-05-03T19:17:41.883Z,13.30
2023-05-03T19:20:10.310Z,13.10
2023-05-03T19:22:37.719Z,12.20
2023-05-03T19:25:05.393Z,12.00
2023-05-03T19:27:32.695Z,11.80
2023-05-03T19:29:59.410Z,11.70
2023-05-03T19:32:26.382Z,11.50
2023-05-03T19:34:53.232Z,11.40
2023-05-03T19:37:19.920Z,11.20
2023-05-03T19:39:46.601Z,11.00
2023-05-03T19:42:13.383Z,10.90
2023-05-03T19:44:40.265Z,10.70
2023-05-03T19:47:07.044Z,10.60
2023-05-03T19:49:34.582Z,10.40
2023-05-03T19:52:02.307Z,10.40
2023-05-03T19:54:29.954Z,10.40
2023-05-03T19:56:56.641Z,11.20
2023-05-03T19:59:23.357Z,10.20
2023-05-03T20:01:50.360Z,10.20
2023-05-03T20:04:17.194Z,10.10
2023-05-03T20:06:43.933Z,10.00
2023-05-03T20:09:10.909Z,9.90
2023-05-03T20:11:37.612Z,9.90
2023-05-03T20:14:04.651Z,9.80
2023-05-03T20:16:33.430Z,9.70
2023-05-03T20:19:00.656Z,9.60
2023-05-03T20:21:27.478Z,9.60
2023-05-03T20:23:54.499Z,10.50
2023-05-03T20:26:21.757Z,9.40
2023-05-03T20:28:48.513Z,9.40
2023-05-03T20:31:15.212Z,9.30
2023-05-03T20:33:42.217Z,9.20
2023-05-03T20:36:08.902Z,9.20
2023-05-03T20:38:35.645Z,9.10
2023-05-03T20:41:02.837Z,9.20
2023-05-03T20:43:29.559Z,9.00
2023-05-03T20:45:56.409Z,8.90
2023-05-03T20:48:23.510Z,8.90
2023-05-03T20:50:50.410Z,8.80
2023-05-03T20:53:17.707Z,8.70
2023-05-03T20:55:44.391Z,8.70
2023-05-03T20:58:12.269Z,10.40
2023-05-03T21:00:39.106Z,8.60
2023-05-03T21:03:05.952Z,8.50
2023-05-03T21:05:32.936Z,8.40
2023-05-03T21:07:59.601Z,9.60
2023-05-03T21:10:26.503Z,8.30
2023-05-03T21:12:53.302Z,8.30
2023-05-03T21:15:20.056Z,8.30
2023-05-03T21:17:47.492Z,8.20
2023-05-03T21:20:14.489Z,8.20
2023-05-03T21:22:41.199Z,8.10
2023-05-03T21:25:08.540Z,8.10
2023-05-03T21:27:35.262Z,8.00
2023-05-03T21:30:02.280Z,8.00
2023-05-03T21:32:29.398Z,7.90
2023-05-03T21:34:56.957Z,7.90
2023-05-03T21:37:23.629Z,7.90
2023-05-03T21:39:57.987Z,7.90
2023-05-03T21:42:27.550Z,7.90
2023-05-03T21:44:54.197Z,7.80
2023-05-03T21:47:20.905Z,7.70
2023-05-03T21:49:47.596Z,7.60
2023-05-03T21:52:14.257Z,7.60
2023-05-03T21:54:41.054Z,7.50
2023-05-03T21:57:07.733Z,7.50
2023-05-03T21:59:34.494Z,7.50
2023-05-03T22:02:01.322Z,6.30
2023-05-03T22:04:28.106Z,7.40
2023-05-03T22:06:54.982Z,7.40
2023-05-03T22:09:21.634Z,7.30
2023-05-03T22:11:48.320Z,7.30
2023-05-03T22:14:15.126Z,7.20
2023-05-03T22:16:42.221Z,7.20
2023-05-03T22:19:09.480Z,7.10
2023-05-03T22:21:36.176Z,7.10
2023-05-03T22:24:03.501Z,7.00
2023-05-03T22:26:30.401Z,6.90
2023-05-03T22:28:57.214Z,8.40
2023-05-03T22:31:24.856Z,6.90
2023-05-03T22:33:52.074Z,6.80
2023-05-03T22:36:18.811Z,6.80
2023-05-03T22:38:45.948Z,6.70
2023-05-03T22:41:12.646Z,6.70
2023-05-03T22:43:39.300Z,6.70
2023-05-03T22:46:06.248Z,6.60
2023-05-03T22:48:34.086Z,7.80
2023-05-03T22:51:00.900Z,7.10
2023-05-03T22:53:27.890Z,6.50
2023-05-03T22:56:04.424Z,6.40
2023-05-03T22:58:31.398Z,6.30
2023-05-03T23:00:58.391Z,6.20
2023-05-03T23:03:25.428Z,6.20
2023-05-03T23:05:53.529Z,6.20
2023-05-03T23:08:21.187Z,6.10
2023-05-03T23:10:47.909Z,6.10
2023-05-03T23:13:14.746Z,6.10
2023-05-03T23:15:41.555Z,6.10
2023-05-03T23:18:08.714Z,6.10
2023-05-03T23:20:35.532Z,6.00
2023-05-03T23:23:02.345Z,7.90
2023-05-03T23:25:29.068Z,5.90
2023-05-03T23:27:56.034Z,5.90
2023-05-03T23:30:23.173Z,5.90
2023-05-03T23:32:50.630Z,5.90
2023-05-03T23:35:18.012Z,5.80
2023-05-03T23:37:44.760Z,5.70
2023-05-03T23:40:12.933Z,5.70
2023-05-03T23:42:41.166Z,5.70
2023-05-03T23:45:09.652Z,5.70
2023-05-03T23:47:36.879Z,5.70
2023-05-03T23:50:04.471Z,5.60
2023-05-03T23:52:31.447Z,5.60
2023-05-03T23:54:58.119Z,5.60
2023-05-03T23:57:24.867Z,7.50
2023-05-03T23:59:51.614Z,5.40
